LIPLLIBP

Guest
Details From LIPL - GHEDI
To LIBP - PESCARA
Flight Number -
Tags generated
Created
Modified
Stats Distance 247 nm / 458 km
Max Altitude 31,500 ft / 9,601 m
Waypoints 5
Social Downloads 1
Likes 0
Share VATSIM

Download

Looking for another format? Having issues loading an existing format? Contact us
Advertisement - Login to hide

Notes

Basic altitude profile: - Ascent Rate: 2500ft/min - Ascent Speed: 250kts - Cruise Altitude: 35000ft - Cruise Speed: 420kts - Descent Rate: 1500ft/min - Descent Speed: 250kts

Route

LIPL PELEG UW95 URBAN UM872 GUBIN LIBP

ID Type Via Altitude Latitude Longitude Leg Dist Tot Dist Heading (true) Name
O LIPL APT - 0 ft / 0 m 45.43217˚ 10.26767˚ - 0 nm - GHEDI
PELEG FIX - 31,500 ft / 9,601 m 44.22778˚ 11.73528˚ 95 nm 95 nm 139° / 140° -
URBAN FIX UW95 (AWY-HI) 23,500 ft / 7,163 m 43.79389˚ 12.34833˚ 37 nm 132 nm 134° / 135° -
GUBIN FIX UM872 (AWY-HI) 19,500 ft / 5,944 m 43.48694˚ 12.77417˚ 26 nm 158 nm 135° / 135° -
O LIBP APT - 0 ft / 0 m 42.43126˚ 14.18303˚ 88 nm 247 nm 135° / 136° PESCARA

Altitude Profile

Advertisement - Login to hide

Weather


0- 5 10 15 20 25 30 35+ Temperature / ° C

Clouds and Precipitation
Forecast for 2018-05-20 12:00 UTC. Updated an hour ago

Ground ~20,000 ft ~40,000 ft Winds

LIPL

Details ICAO LIPL
Name GHEDI
Region Italy
Timezone Europe/Rome (UTC+2.0)
Stats Elevation 333 ft / 101 m (AMSL)
Location 45.432167° 10.267667°
Runways 1
Magnetic Variation 2.773° E

METAR

LIPL 201155Z 12010KT 9999 FEW033 SCT050 24/07 Q1016 RMK SCT VIS MIN 9999 WIND THR31 10011KT WIND THR13 11009KT BLU

Decode

TAF

Not found

Departure Runways

ID Width Length Bearing (true) Bearing (mag) Surface Threshold Offset Overrun Length
13 148 ft / 45 m 9,767 ft / 2,977 m 135.09° 132.32° Asphalt 812 ft / 248 m 0 ft / 0 m
31 148 ft / 45 m 9,767 ft / 2,977 m 315.11° 312.34° Asphalt 812 ft / 248 m 0 ft / 0 m

LIBP

Details ICAO LIBP (PSR)
Name PESCARA
Region Italy
Timezone Europe/Rome (UTC+2.0)
Stats Elevation 48 ft / 15 m (AMSL)
Location 42.431257° 14.183030°
Runways 1
Magnetic Variation 3.427° E

METAR

LIBP 201150Z 03010KT 340V060 CAVOK 23/17 Q1015

Decode

TAF

TAF LIBP 201100Z 2012/2112 04010KT 9999 SCT040 BECMG 2018/2020 VRB05KT BECMG 2108/2110 03010KT

Decode

Destination Runways

ID Width Length Bearing (true) Bearing (mag) Surface Threshold Offset Overrun Length
04 148 ft / 45 m 7,943 ft / 2,421 m 37.19° 33.76° Asphalt 344 ft / 105 m 0 ft / 0 m
22 148 ft / 45 m 7,943 ft / 2,421 m 217.21° 213.78° Asphalt 617 ft / 188 m 0 ft / 0 m

Approach Navaids

Runway Type Ident Frequency Range Bearing (true) Bearing (mag) Slope Elevation
22 Localiser IPS 110.70 MHz 18 nm / 33 km 217.39° 213.97° - 48 ft / 15 m (AMSL)
22 Glidescope IPS 110.70 MHz 10 nm / 19 km 217.20° 213.77° 3.00° 48 ft / 15 m (AMSL)
22 DME IPS 110.70 MHz 18 nm / 33 km - - - 48 ft / 15 m (AMSL)